createdAt,value
2022-11-21T00:02:35.497Z,85.13
2022-11-21T00:05:07.545Z,84.70
2022-11-21T00:07:38.975Z,84.81
2022-11-21T00:10:09.854Z,84.74
2022-11-21T00:12:42.895Z,84.59
2022-11-21T00:15:14.058Z,84.53
2022-11-21T00:17:48.444Z,84.25
2022-11-21T00:20:20.629Z,84.39
2022-11-21T00:22:52.151Z,84.33
2022-11-21T00:25:23.753Z,84.39
2022-11-21T00:27:55.886Z,84.21
2022-11-21T00:30:27.165Z,84.09
2022-11-21T00:33:02.094Z,83.46
2022-11-21T00:35:32.829Z,83.84
2022-11-21T00:38:03.676Z,84.28
2022-11-21T00:40:36.215Z,84.33
2022-11-21T00:43:06.749Z,83.82
2022-11-21T00:45:40.929Z,83.52
2022-11-21T00:48:11.431Z,83.82
2022-11-21T00:50:44.892Z,84.01
2022-11-21T00:53:15.581Z,83.60
2022-11-21T00:55:46.456Z,83.97
2022-11-21T00:58:18.621Z,83.58
2022-11-21T01:00:51.532Z,83.89
2022-11-21T01:03:22.812Z,84.25
2022-11-21T01:05:54.163Z,84.51
2022-11-21T01:08:26.259Z,84.72
2022-11-21T01:10:57.907Z,84.72
2022-11-21T01:13:29.982Z,84.93
2022-11-21T01:16:19.297Z,85.04
2022-11-21T01:18:50.906Z,85.07
2022-11-21T01:21:26.085Z,85.04
2022-11-21T01:24:00.099Z,85.16
2022-11-21T01:26:33.195Z,85.49
2022-11-21T01:29:06.449Z,85.24
2022-11-21T01:31:36.983Z,85.48
2022-11-21T01:34:09.080Z,85.49
2022-11-21T01:36:39.778Z,85.85
2022-11-21T01:39:13.135Z,86.12
2022-11-21T01:41:46.593Z,86.01
2022-11-21T01:44:30.619Z,86.35
2022-11-21T01:47:02.875Z,86.23
2022-11-21T01:49:35.857Z,86.37
2022-11-21T01:52:12.434Z,86.39
2022-11-21T01:54:58.879Z,86.28
2022-11-21T01:57:36.133Z,86.36
2022-11-21T02:00:13.022Z,86.13
2022-11-21T02:02:48.161Z,86.09
2022-11-21T02:05:24.960Z,85.88
2022-11-21T02:08:00.285Z,85.96
2022-11-21T02:10:33.556Z,86.01
2022-11-21T02:13:04.712Z,85.96
2022-11-21T02:15:37.551Z,85.53
2022-11-21T02:18:14.414Z,85.62
2022-11-21T02:20:47.877Z,85.60
2022-11-21T02:26:50.605Z,85.59
2022-11-21T02:29:21.211Z,85.74
2022-11-21T02:31:53.430Z,85.70
2022-11-21T02:34:23.844Z,85.69
2022-11-21T02:36:54.638Z,85.90
2022-11-21T02:39:37.567Z,85.92
2022-11-21T02:42:21.268Z,85.83
2022-11-21T02:45:00.988Z,85.74
2022-11-21T02:47:34.694Z,85.63
2022-11-21T02:50:18.672Z,85.78
2022-11-21T02:52:49.288Z,85.93
2022-11-21T02:55:22.288Z,86.14
2022-11-21T02:57:53.172Z,85.81
2022-11-21T03:00:26.308Z,85.43
2022-11-21T03:02:58.547Z,85.83
2022-11-21T03:05:30.846Z,86.08
2022-11-21T03:08:02.049Z,86.07
2022-11-21T03:10:34.702Z,86.00
2022-11-21T03:13:06.160Z,85.93
2022-11-21T03:15:38.276Z,86.10
2022-11-21T03:18:12.532Z,86.17
2022-11-21T03:20:43.256Z,86.33
2022-11-21T03:23:17.151Z,86.25
2022-11-21T03:25:49.069Z,86.01
2022-11-21T03:28:22.706Z,86.10
2022-11-21T03:30:56.568Z,86.25
2022-11-21T03:33:27.135Z,86.26
2022-11-21T03:35:59.251Z,86.35
2022-11-21T03:38:33.059Z,86.62
2022-11-21T03:41:08.482Z,86.13
2022-11-21T03:43:40.682Z,85.95
2022-11-21T03:46:11.088Z,85.87
2022-11-21T03:48:45.776Z,85.92
2022-11-21T03:51:17.957Z,85.79
2022-11-21T03:53:49.263Z,86.10
2022-11-21T03:56:20.895Z,86.28
2022-11-21T03:58:52.204Z,86.47
2022-11-21T04:01:24.899Z,86.62
2022-11-21T04:04:00.785Z,86.66
2022-11-21T04:06:31.879Z,86.61
2022-11-21T04:09:04.250Z,86.57
2022-11-21T04:11:37.423Z,86.57
2022-11-21T04:14:08.049Z,86.38
2022-11-21T04:16:40.595Z,86.23
2022-11-21T04:19:11.127Z,86.35
2022-11-21T04:21:43.513Z,86.28
2022-11-21T04:24:15.760Z,86.29
2022-11-21T04:26:46.547Z,86.25
2022-11-21T04:29:17.091Z,86.26
2022-11-21T04:31:47.568Z,86.20
2022-11-21T04:34:18.105Z,86.35
2022-11-21T04:36:48.583Z,86.47
2022-11-21T04:39:19.472Z,85.82
2022-11-21T04:41:54.374Z,85.44
2022-11-21T04:44:28.763Z,85.67
2022-11-21T04:47:05.265Z,85.89
2022-11-21T04:49:35.294Z,86.20
2022-11-21T04:52:10.089Z,86.40
2022-11-21T04:54:43.106Z,86.49
2022-11-21T04:57:14.786Z,86.19
2022-11-21T04:59:46.391Z,85.95
2022-11-21T05:02:22.211Z,85.35
2022-11-21T05:04:55.320Z,85.79
2022-11-21T05:07:28.749Z,85.07
2022-11-21T05:10:01.352Z,85.70
2022-11-21T05:12:50.283Z,85.63
2022-11-21T05:15:24.798Z,85.67
2022-11-21T05:17:55.114Z,85.83
2022-11-21T05:20:27.826Z,85.72
2022-11-21T05:22:58.553Z,85.75
2022-11-21T05:25:29.569Z,85.66
2022-11-21T05:28:03.749Z,85.52
2022-11-21T05:30:35.967Z,85.39
2022-11-21T05:33:07.193Z,85.17
2022-11-21T05:35:43.100Z,84.94
2022-11-21T05:38:12.780Z,85.23
2022-11-21T05:40:44.763Z,85.54
2022-11-21T05:43:34.581Z,85.38
2022-11-21T05:46:05.477Z,85.15
2022-11-21T05:48:41.455Z,85.86
2022-11-21T05:51:12.802Z,85.45
2022-11-21T05:53:45.303Z,85.44
2022-11-21T05:56:18.774Z,85.28
2022-11-21T05:58:49.607Z,85.27
2022-11-21T06:01:21.693Z,85.16
2022-11-21T06:03:52.147Z,84.76
2022-11-21T06:06:27.938Z,84.77
2022-11-21T06:08:56.913Z,85.07
2022-11-21T06:11:27.495Z,85.28
2022-11-21T06:13:58.536Z,85.58
2022-11-21T06:16:29.287Z,85.67
2022-11-21T06:19:03.812Z,85.82
2022-11-21T06:21:36.249Z,85.69
2022-11-21T06:24:08.340Z,85.53
2022-11-21T06:26:40.567Z,85.59
2022-11-21T06:29:15.599Z,85.92
2022-11-21T06:31:46.539Z,85.59
2022-11-21T06:34:18.677Z,85.68
2022-11-21T06:36:49.661Z,85.27
2022-11-21T06:39:23.177Z,85.04
2022-11-21T06:41:54.599Z,84.86
2022-11-21T06:44:26.809Z,84.99
2022-11-21T06:46:59.179Z,85.04
2022-11-21T06:49:30.042Z,84.87
2022-11-21T06:52:04.405Z,85.13
2022-11-21T06:54:34.417Z,85.36
2022-11-21T06:57:05.102Z,85.17
2022-11-21T06:59:35.816Z,85.36
2022-11-21T07:02:09.372Z,85.77
2022-11-21T07:04:41.843Z,85.83
2022-11-21T07:07:12.532Z,86.38
2022-11-21T07:09:45.157Z,86.64
2022-11-21T07:12:34.947Z,86.93
2022-11-21T07:15:07.139Z,87.37
2022-11-21T07:17:39.270Z,87.49
2022-11-21T07:20:10.994Z,87.60
2022-11-21T07:22:43.536Z,87.75
2022-11-21T07:25:15.874Z,88.05
2022-11-21T07:27:47.535Z,88.00
2022-11-21T07:30:18.165Z,88.00
2022-11-21T07:32:48.795Z,87.76
2022-11-21T07:35:19.606Z,87.75
2022-11-21T07:37:50.375Z,87.38
2022-11-21T07:40:22.100Z,87.19
2022-11-21T07:42:57.342Z,87.29
2022-11-21T07:45:32.914Z,87.24
2022-11-21T07:48:08.483Z,87.39
2022-11-21T07:50:43.622Z,86.89
2022-11-21T07:53:16.833Z,86.95
2022-11-21T07:55:48.562Z,86.39
2022-11-21T07:58:19.532Z,86.57
2022-11-21T08:00:50.227Z,86.61
2022-11-21T08:03:23.833Z,86.44
2022-11-21T08:05:54.465Z,86.85
2022-11-21T08:08:24.861Z,87.13
2022-11-21T08:10:55.421Z,87.46
2022-11-21T08:13:29.132Z,87.66
2022-11-21T08:16:03.109Z,87.92
2022-11-21T08:18:34.421Z,88.03
2022-11-21T08:21:06.737Z,88.18
2022-11-21T08:23:37.356Z,88.11
2022-11-21T08:26:11.081Z,87.88
2022-11-21T08:28:44.197Z,87.55
2022-11-21T08:31:17.690Z,87.57
2022-11-21T08:33:51.492Z,87.15
2022-11-21T08:36:24.857Z,86.87
2022-11-21T08:38:55.865Z,86.87
2022-11-21T08:41:44.627Z,86.67
2022-11-21T08:44:17.280Z,86.13
2022-11-21T08:46:48.232Z,85.90
2022-11-21T08:49:21.921Z,85.99
2022-11-21T08:51:56.580Z,86.59
2022-11-21T08:54:29.041Z,86.76
2022-11-21T08:57:02.761Z,87.54
2022-11-21T08:59:38.142Z,86.72
2022-11-21T09:02:12.060Z,86.13
2022-11-21T09:04:42.559Z,86.24
2022-11-21T09:07:16.249Z,86.06
2022-11-21T09:09:53.588Z,86.13
2022-11-21T09:12:25.355Z,86.17
2022-11-21T09:15:15.607Z,86.25
2022-11-21T09:18:06.713Z,86.48
2022-11-21T09:20:43.114Z,86.36
2022-11-21T09:23:18.411Z,86.51
2022-11-21T09:25:52.993Z,86.35
2022-11-21T09:28:26.264Z,85.86
2022-11-21T09:30:56.695Z,85.60
2022-11-21T09:33:28.834Z,85.16
2022-11-21T09:36:02.954Z,85.11
2022-11-21T09:38:34.398Z,84.53
2022-11-21T09:41:39.429Z,84.79
2022-11-21T09:44:14.183Z,84.60
2022-11-21T09:46:57.823Z,84.15
2022-11-21T09:49:30.392Z,84.16
2022-11-21T09:52:04.318Z,83.48
2022-11-21T09:54:42.290Z,83.95
2022-11-21T09:57:15.105Z,85.30
2022-11-21T09:59:47.246Z,85.35
2022-11-21T10:02:24.493Z,85.47
2022-11-21T10:04:56.818Z,85.10
2022-11-21T10:07:30.723Z,84.96
2022-11-21T10:10:28.545Z,85.29
2022-11-21T10:13:13.576Z,85.39
2022-11-21T10:15:53.132Z,85.10
2022-11-21T10:18:50.928Z,85.46
2022-11-21T10:21:43.956Z,85.41
2022-11-21T10:24:32.946Z,85.86
2022-11-21T10:27:09.752Z,85.33
2022-11-21T10:29:50.541Z,84.68
2022-11-21T10:32:24.751Z,84.36
2022-11-21T10:35:00.485Z,84.26
2022-11-21T10:37:34.093Z,84.05
2022-11-21T10:40:08.740Z,84.30
2022-11-21T10:42:49.032Z,84.53
2022-11-21T10:45:20.475Z,85.09
2022-11-21T10:47:52.551Z,85.10
2022-11-21T10:50:44.916Z,85.26
2022-11-21T10:53:43.723Z,85.24
2022-11-21T10:56:22.941Z,85.60
2022-11-21T10:58:57.233Z,85.99
2022-11-21T11:01:36.433Z,86.14
2022-11-21T11:06:45.739Z,85.91
2022-11-21T11:09:34.358Z,85.85
2022-11-21T11:12:43.832Z,85.35
2022-11-21T11:15:28.597Z,84.85
2022-11-21T11:18:07.661Z,84.61
2022-11-21T11:20:47.523Z,84.79
2022-11-21T11:23:28.550Z,84.65
2022-11-21T11:26:01.451Z,84.07
2022-11-21T11:28:37.787Z,83.49
2022-11-21T11:31:09.968Z,83.01
2022-11-21T11:33:58.009Z,81.87
2022-11-21T11:36:44.431Z,82.02
2022-11-21T11:39:37.775Z,81.89
2022-11-21T11:42:54.282Z,81.68
2022-11-21T11:46:03.592Z,82.07
2022-11-21T11:49:03.265Z,81.30
2022-11-21T11:51:28.401Z,81.41
2022-11-21T11:54:01.906Z,80.96
2022-11-21T11:56:39.837Z,80.69
2022-11-21T11:59:37.299Z,80.39
2022-11-21T12:02:25.749Z,79.70
2022-11-21T12:04:59.361Z,79.73
2022-11-21T12:10:14.217Z,80.53
2022-11-21T12:12:50.458Z,81.12
2022-11-21T12:15:41.729Z,81.47
2022-11-21T12:18:17.923Z,81.25
2022-11-21T12:21:05.973Z,81.03
2022-11-21T12:23:56.878Z,80.95
2022-11-21T12:26:55.954Z,80.63
2022-11-21T12:29:37.842Z,80.61
2022-11-21T12:32:43.599Z,81.13
2022-11-21T12:35:32.289Z,81.38
2022-11-21T12:38:18.168Z,81.33
2022-11-21T12:41:12.613Z,81.49
2022-11-21T12:43:47.116Z,80.69
2022-11-21T12:46:23.265Z,80.15
2022-11-21T12:49:16.621Z,80.53
2022-11-21T12:52:27.132Z,80.44
2022-11-21T12:55:12.810Z,80.78
2022-11-21T12:58:04.278Z,81.01
2022-11-21T13:00:53.219Z,80.77
2022-11-21T13:03:33.608Z,80.68
2022-11-21T13:06:06.969Z,80.87
2022-11-21T13:08:38.809Z,80.79
2022-11-21T13:11:47.230Z,80.83
2022-11-21T13:14:41.221Z,80.31
2022-11-21T13:17:20.418Z,79.89
2022-11-21T13:20:02.690Z,81.00
2022-11-21T13:22:48.648Z,80.40
2022-11-21T13:25:35.160Z,80.89
2022-11-21T13:28:22.101Z,80.97
2022-11-21T13:30:54.848Z,81.03
2022-11-21T13:33:44.905Z,82.31
2022-11-21T13:36:22.805Z,81.88
2022-11-21T13:38:56.359Z,81.81
2022-11-21T13:41:59.676Z,82.12
2022-11-21T13:44:36.587Z,82.30
2022-11-21T13:47:28.580Z,81.87
2022-11-21T13:50:31.232Z,82.82
2022-11-21T13:53:22.924Z,82.27
2022-11-21T13:56:02.653Z,82.29
2022-11-21T13:58:48.555Z,82.56
2022-11-21T14:01:48.509Z,83.12
2022-11-21T14:04:39.426Z,83.45
2022-11-21T14:07:40.701Z,83.21
2022-11-21T14:10:34.053Z,83.00
2022-11-21T14:13:08.482Z,83.09
2022-11-21T14:16:05.525Z,83.02
2022-11-21T14:18:40.771Z,83.46
2022-11-21T14:21:29.493Z,83.13
2022-11-21T14:24:07.059Z,83.90
2022-11-21T14:26:47.530Z,84.63
2022-11-21T14:29:22.753Z,84.87
2022-11-21T14:31:57.084Z,85.06
2022-11-21T14:34:30.874Z,85.12
2022-11-21T14:37:05.648Z,85.07
2022-11-21T14:39:45.396Z,84.95
2022-11-21T14:42:21.849Z,84.45
2022-11-21T14:44:55.885Z,84.51
2022-11-21T14:47:29.683Z,84.46
2022-11-21T14:50:06.855Z,84.71
2022-11-21T14:52:36.175Z,85.19
2022-11-21T14:57:43.940Z,85.15
2022-11-21T15:02:57.119Z,84.52
2022-11-21T15:06:00.852Z,84.72
2022-11-21T15:08:38.711Z,84.85
2022-11-21T15:10:41.758Z,84.57
2022-11-21T15:13:16.477Z,83.81
2022-11-21T15:15:54.135Z,83.79
2022-11-21T15:18:28.801Z,82.78
2022-11-21T15:21:03.240Z,82.68
2022-11-21T15:23:38.008Z,82.80
2022-11-21T15:26:29.432Z,83.20
2022-11-21T15:29:02.290Z,83.28
2022-11-21T15:31:34.381Z,83.41
2022-11-21T15:36:39.613Z,83.04
2022-11-21T15:39:20.452Z,82.58
2022-11-21T15:41:52.725Z,83.64
2022-11-21T15:44:31.313Z,83.97
2022-11-21T15:47:03.558Z,84.83
2022-11-21T15:49:35.279Z,85.30
2022-11-21T15:52:09.973Z,85.29
2022-11-21T15:54:41.837Z,85.51
2022-11-21T15:57:16.721Z,85.21
2022-11-21T15:59:50.135Z,85.73
2022-11-21T16:02:23.443Z,85.43
2022-11-21T16:04:55.554Z,85.28
2022-11-21T16:07:26.970Z,85.48
2022-11-21T16:09:58.681Z,85.47
2022-11-21T16:12:30.517Z,85.53
2022-11-21T16:15:00.948Z,85.20
2022-11-21T16:17:34.689Z,85.39
2022-11-21T16:20:07.778Z,85.08
2022-11-21T16:22:46.946Z,85.04
2022-11-21T16:25:13.322Z,84.92
2022-11-21T16:27:44.713Z,84.61
2022-11-21T16:30:18.026Z,84.47
2022-11-21T16:32:48.681Z,84.82
2022-11-21T16:35:19.421Z,84.87
2022-11-21T16:37:53.017Z,85.35
2022-11-21T16:40:25.154Z,85.46
2022-11-21T16:42:58.787Z,85.61
2022-11-21T16:45:29.854Z,85.70
2022-11-21T16:48:00.443Z,85.80
2022-11-21T16:50:31.017Z,85.76
2022-11-21T16:53:03.005Z,85.67
2022-11-21T16:55:34.846Z,85.85
2022-11-21T16:58:06.076Z,85.95
2022-11-21T17:00:37.030Z,86.21
2022-11-21T17:03:12.001Z,86.40
2022-11-21T17:05:45.451Z,86.25
2022-11-21T17:08:15.874Z,86.50
2022-11-21T17:10:47.780Z,86.71
2022-11-21T17:13:22.463Z,86.48
2022-11-21T17:15:53.580Z,86.48
2022-11-21T17:18:24.004Z,86.60
2022-11-21T17:20:55.396Z,86.58
2022-11-21T17:23:26.307Z,86.55
2022-11-21T17:25:59.374Z,86.71
2022-11-21T17:28:32.923Z,86.79
2022-11-21T17:31:14.339Z,86.84
2022-11-21T17:33:47.107Z,86.89
2022-11-21T17:36:22.666Z,86.89
2022-11-21T17:38:55.318Z,86.91
2022-11-21T17:41:27.891Z,86.96
2022-11-21T17:44:02.326Z,86.89
2022-11-21T17:46:33.817Z,86.89
2022-11-21T17:49:06.043Z,87.06
2022-11-21T17:51:40.432Z,87.08
2022-11-21T17:54:13.768Z,87.08
2022-11-21T17:56:51.399Z,87.14
2022-11-21T17:59:18.406Z,87.10
2022-11-21T18:01:52.094Z,87.16
2022-11-21T18:04:25.705Z,87.26
2022-11-21T18:06:56.494Z,87.10
2022-11-21T18:09:28.932Z,87.19
2022-11-21T18:12:00.740Z,87.22
2022-11-21T18:14:32.430Z,87.35
2022-11-21T18:17:02.936Z,87.35
2022-11-21T18:19:35.027Z,87.35
2022-11-21T18:22:07.263Z,87.27
2022-11-21T18:24:39.122Z,87.26
2022-11-21T18:27:10.019Z,87.40
2022-11-21T18:29:42.335Z,87.44
2022-11-21T18:32:17.385Z,87.48
2022-11-21T18:34:49.955Z,87.46
2022-11-21T18:37:22.613Z,87.31
2022-11-21T18:39:56.023Z,87.42
2022-11-21T18:42:28.976Z,87.43
2022-11-21T18:45:01.271Z,87.53
2022-11-21T18:47:34.539Z,87.42
2022-11-21T18:50:10.122Z,87.46
2022-11-21T18:52:46.447Z,87.33
2022-11-21T18:55:16.082Z,87.28
2022-11-21T18:58:14.497Z,87.29
2022-11-21T19:00:46.926Z,87.21
2022-11-21T19:03:19.319Z,87.01
2022-11-21T19:06:01.339Z,86.96
2022-11-21T19:08:35.978Z,86.91
2022-11-21T19:11:09.575Z,86.61
2022-11-21T19:13:43.560Z,86.55
2022-11-21T19:16:18.619Z,86.62
2022-11-21T19:19:11.546Z,86.46
2022-11-21T19:21:25.888Z,86.29
2022-11-21T19:23:57.945Z,86.18
2022-11-21T19:26:41.270Z,86.18
2022-11-21T19:29:15.985Z,86.01
2022-11-21T19:31:47.908Z,85.73
2022-11-21T19:34:20.356Z,85.54
2022-11-21T19:36:52.757Z,85.39
2022-11-21T19:39:26.571Z,85.10
2022-11-21T19:41:59.241Z,85.21
2022-11-21T19:44:34.428Z,85.05
2022-11-21T19:47:08.194Z,85.18
2022-11-21T19:49:40.138Z,85.01
2022-11-21T19:52:10.555Z,85.04
2022-11-21T19:54:41.058Z,84.91
2022-11-21T19:57:17.401Z,84.88
2022-11-21T19:59:48.211Z,84.84
2022-11-21T20:02:25.931Z,85.03
2022-11-21T20:04:57.755Z,85.12
2022-11-21T20:07:29.949Z,84.71
2022-11-21T20:10:03.401Z,84.70
2022-11-21T20:12:37.084Z,84.67
2022-11-21T20:15:10.418Z,84.75
2022-11-21T20:17:43.784Z,85.14
2022-11-21T20:20:14.232Z,84.83
2022-11-21T20:22:48.387Z,84.78
2022-11-21T20:25:21.573Z,84.72
2022-11-21T20:27:55.091Z,84.35
2022-11-21T20:30:30.289Z,83.79
2022-11-21T20:33:00.146Z,83.76
2022-11-21T20:35:33.256Z,83.71
2022-11-21T20:38:03.744Z,83.47
2022-11-21T20:40:36.736Z,83.31
2022-11-21T20:43:07.440Z,83.34
2022-11-21T20:48:14.668Z,83.12
2022-11-21T20:53:51.477Z,83.26
2022-11-21T20:55:56.181Z,83.09
2022-11-21T20:58:31.367Z,83.26
2022-11-21T21:01:03.052Z,83.24
2022-11-21T21:03:40.281Z,83.10
2022-11-21T21:06:17.010Z,83.28
2022-11-21T21:08:48.671Z,83.39
2022-11-21T21:13:57.080Z,83.75
2022-11-21T21:16:33.883Z,83.63
2022-11-21T21:19:06.205Z,83.40
2022-11-21T21:21:38.600Z,83.16
2022-11-21T21:24:13.333Z,83.30
2022-11-21T21:26:48.092Z,83.14
2022-11-21T21:29:21.492Z,82.98
2022-11-21T21:31:57.086Z,83.19
2022-11-21T21:34:29.443Z,83.04
2022-11-21T21:39:58.886Z,83.36
2022-11-21T21:42:32.345Z,83.39
2022-11-21T21:45:02.878Z,83.30
2022-11-21T21:47:33.295Z,83.45
2022-11-21T21:50:05.273Z,83.28
2022-11-21T21:52:35.936Z,83.37
2022-11-21T21:55:08.843Z,83.36
2022-11-21T21:57:46.061Z,83.50
2022-11-21T22:00:13.898Z,83.67
2022-11-21T22:02:45.762Z,83.77
2022-11-21T22:05:17.806Z,83.75
2022-11-21T22:07:50.102Z,83.93
2022-11-21T22:10:22.213Z,83.93
2022-11-21T22:12:53.127Z,84.07
2022-11-21T22:15:23.758Z,84.02
2022-11-21T22:17:56.877Z,84.23
2022-11-21T22:20:29.428Z,84.40
2022-11-21T22:23:01.690Z,84.68
2022-11-21T22:25:35.645Z,84.87
2022-11-21T22:28:06.591Z,85.07
2022-11-21T22:30:48.271Z,85.27
2022-11-21T22:33:20.474Z,85.40
2022-11-21T22:35:52.157Z,85.56
2022-11-21T22:38:24.455Z,85.59
2022-11-21T22:40:58.652Z,85.76
2022-11-21T22:43:29.797Z,85.91
2022-11-21T22:46:05.034Z,85.89
2022-11-21T22:48:36.561Z,86.03
2022-11-21T22:51:08.777Z,86.26
2022-11-21T22:53:40.540Z,86.30
2022-11-21T22:56:12.805Z,86.36
2022-11-21T22:58:45.546Z,86.38
2022-11-21T23:01:23.169Z,86.34
2022-11-21T23:03:58.078Z,86.31
2022-11-21T23:06:30.254Z,86.38
2022-11-21T23:09:02.708Z,86.50
2022-11-21T23:11:39.369Z,86.61
2022-11-21T23:14:08.414Z,86.68
2022-11-21T23:16:39.012Z,86.84
2022-11-21T23:19:11.461Z,86.92
2022-11-21T23:21:42.423Z,86.92
2022-11-21T23:24:14.117Z,86.93
2022-11-21T23:26:46.897Z,87.03
2022-11-21T23:29:18.693Z,87.03
2022-11-21T23:31:49.426Z,87.07
2022-11-21T23:34:23.085Z,86.99
2022-11-21T23:36:55.117Z,86.90
2022-11-21T23:39:25.894Z,86.89
2022-11-21T23:41:57.174Z,86.85
2022-11-21T23:44:30.096Z,86.71
2022-11-21T23:47:01.067Z,86.56
2022-11-21T23:49:32.067Z,86.48
2022-11-21T23:52:08.124Z,86.57
2022-11-21T23:54:39.446Z,86.13
2022-11-21T23:57:11.416Z,85.98
2022-11-21T23:59:42.809Z,85.95
